Aviation Digital Data Service (ADDS)

Output produced by TAFs form (0220 UTC 18 January 2018)
found at http://www.aviationweather.gov/adds/tafs/
 
KFTY 180153Z 36006KT 10SM CLR M07/M13 A3043 RMK AO2 SLP316 T10671128
KFTY 172320Z 1800/1824 31013G23KT P6SM SKC 
     FM180200 32007KT P6SM SKC